Time;durP1;ratioP1;P1;durP2;ratioP2;P2;SDS_P1;SDS_P2;PMS_P1;PMS_P2;Temp;Humidity;BMP_temperature;BMP_pressure;BME280_temperature;BME280_humidity;BME280_pressure;Samples;Min_cycle;Max_cycle;Signal;HPM_P1;HPM_P2
2022/06/24 05:30:11;;;;;;;7.58;3.40;;;;;;;18.45;92.87;99505.70;1631725;87;21602;-42
2022/06/24 05:32:38;;;;;;;4.10;3.30;;;;;;;18.54;91.68;99511.42;1629502;86;21610;-48
2022/06/24 05:35:06;;;;;;;5.40;3.30;;;;;;;18.61;91.67;99515.97;1630703;86;21053;-41
2022/06/24 05:37:34;;;;;;;7.75;3.02;;;;;;;18.69;92.23;99523.63;1629534;87;21102;-48
2022/06/24 05:40:01;;;;;;;6.28;3.77;;;;;;;18.78;91.06;99535.97;1624971;87;21048;-41
2022/06/24 05:42:28;;;;;;;8.70;3.83;;;;;;;18.83;90.99;99526.50;1634112;85;21584;-48
2022/06/24 05:44:55;;;;;;;6.08;3.55;;;;;;;18.84;90.12;99531.75;1625946;87;21016;-48
2022/06/24 05:47:22;;;;;;;7.62;3.47;;;;;;;18.82;90.05;99538.03;1626828;86;21116;-48
2022/06/24 05:49:48;;;;;;;4.97;3.25;;;;;;;18.78;89.88;99544.39;1635927;86;21456;-48
2022/06/24 05:52:15;;;;;;;7.25;3.70;;;;;;;18.73;90.29;99542.41;1625620;86;21039;-48
2022/06/24 05:57:27;;;;;;;6.83;3.62;;;;;;;18.71;90.85;99547.78;1628602;86;21038;-48
2022/06/24 05:59:54;;;;;;;4.33;2.75;;;;;;;18.67;90.54;99546.23;1629126;87;21026;-48
2022/06/24 06:02:22;;;;;;;9.25;3.52;;;;;;;18.66;91.23;99546.23;1626446;87;21038;-48
2022/06/24 06:04:49;;;;;;;5.08;3.50;;;;;;;18.63;90.95;99540.62;1631418;86;21037;-48
2022/06/24 06:07:16;;;;;;;9.55;3.15;;;;;;;18.63;91.89;99542.42;1620801;86;21070;-48
2022/06/24 06:09:43;;;;;;;5.85;3.50;;;;;;;18.67;92.16;99547.95;1622730;87;21074;-48
2022/06/24 06:12:10;;;;;;;6.92;3.22;;;;;;;18.73;92.08;99547.70;1629126;86;21685;-48
2022/06/24 06:14:37;;;;;;;6.15;3.50;;;;;;;18.81;92.38;99544.27;1624694;87;21022;-48
2022/06/24 06:17:05;;;;;;;6.40;3.45;;;;;;;18.90;92.12;99547.80;1606879;88;21418;-48
2022/06/24 06:19:34;;;;;;;5.12;3.47;;;;;;;18.94;91.51;99545.41;1607910;88;21617;-42
2022/06/24 06:22:02;;;;;;;9.35;3.37;;;;;;;18.96;90.77;99540.03;1613030;88;21059;-42
2022/06/24 06:24:31;;;;;;;6.70;3.55;;;;;;;18.97;91.04;99549.27;1618487;87;21070;-41
2022/06/24 06:26:58;;;;;;;7.12;3.75;;;;;;;19.01;91.59;99548.17;1627425;86;21585;-41
2022/06/24 06:29:25;;;;;;;8.83;3.60;;;;;;;19.06;91.29;99543.98;1631763;86;21026;-42
2022/06/24 06:31:51;;;;;;;7.50;3.85;;;;;;;19.09;91.22;99551.34;1627536;87;21673;-40
2022/06/24 06:34:19;;;;;;;9.55;4.17;;;;;;;19.14;90.67;99552.46;1625458;87;21034;-41
2022/06/24 06:36:46;;;;;;;5.50;3.95;;;;;;;19.17;90.95;99550.97;1616760;86;21003;-40
2022/06/24 06:39:13;;;;;;;9.78;4.40;;;;;;;19.23;90.90;99552.48;1639062;87;21034;-40
2022/06/24 06:41:41;;;;;;;7.10;5.10;;;;;;;19.26;90.57;99544.39;1631742;86;21506;-40
2022/06/24 06:44:08;;;;;;;13.83;6.25;;;;;;;19.26;90.79;99549.23;1624448;88;21090;-40
2022/06/24 06:46:35;;;;;;;12.03;6.17;;;;;;;19.30;90.40;99556.09;1631362;87;21047;-40
2022/06/24 06:49:02;;;;;;;7.62;5.55;;;;;;;19.32;90.42;99563.52;1625617;87;21035;-40
2022/06/24 06:51:29;;;;;;;9.95;6.10;;;;;;;19.39;90.82;99561.44;1628327;87;21034;-39
2022/06/24 06:53:56;;;;;;;7.70;6.03;;;;;;;19.46;90.31;99552.71;1628626;87;21035;-40
2022/06/24 06:56:22;;;;;;;9.40;6.28;;;;;;;19.47;89.83;99562.38;1628131;88;21039;-39
2022/06/24 06:58:49;;;;;;;6.00;5.40;;;;;;;19.46;89.51;99555.36;1624096;88;21099;-40
2022/06/24 07:01:15;;;;;;;11.33;6.45;;;;;;;19.45;89.54;99567.77;1643108;86;21566;-40
2022/06/24 07:03:42;;;;;;;24.75;6.83;;;;;;;19.47;90.44;99561.05;1636615;86;21090;-40
2022/06/24 07:06:09;;;;;;;6.80;6.10;;;;;;;19.53;90.05;99562.94;1634063;87;21052;-39
2022/06/24 07:08:37;;;;;;;16.35;7.60;;;;;;;19.59;90.01;99556.05;1627744;87;21567;-40
2022/06/24 07:11:04;;;;;;;9.50;7.42;;;;;;;19.68;89.00;99553.42;1627477;86;21015;-40
2022/06/24 07:13:32;;;;;;;12.95;7.00;;;;;;;19.88;88.98;99557.73;1625599;87;21054;-40
2022/06/24 07:15:58;;;;;;;8.13;7.33;;;;;;;20.15;88.68;99548.86;1627095;86;21010;-40
2022/06/24 07:18:25;;;;;;;11.12;6.40;;;;;;;20.39;88.04;99548.06;1625695;87;21089;-40
2022/06/24 07:20:53;;;;;;;12.65;6.83;;;;;;;20.57;87.18;99542.28;1626475;88;21071;-40
2022/06/24 07:23:20;;;;;;;9.30;6.80;;;;;;;20.70;84.45;99539.39;1617689;87;21654;-40
2022/06/24 07:25:46;;;;;;;8.13;7.30;;;;;;;20.72;83.62;99538.34;1626440;87;21661;-45
2022/06/24 07:28:13;;;;;;;8.68;7.60;;;;;;;20.72;84.03;99541.01;1623801;86;21649;-49
2022/06/24 07:30:40;;;;;;;13.20;8.35;;;;;;;20.80;82.98;99531.75;1624938;87;21027;-39
2022/06/24 07:33:08;;;;;;;12.73;7.67;;;;;;;20.87;82.50;99535.34;1619700;87;21088;-39
2022/06/24 07:35:35;;;;;;;10.88;6.87;;;;;;;21.02;83.34;99529.64;1627580;87;21047;-40
2022/06/24 07:38:02;;;;;;;8.80;7.20;;;;;;;21.23;80.57;99544.42;1628442;87;21437;-41
2022/06/24 07:40:29;;;;;;;7.80;6.22;;;;;;;21.36;80.65;99534.45;1628798;87;21027;-40
2022/06/24 07:42:55;;;;;;;8.60;7.00;;;;;;;21.44;78.41;99530.41;1628413;87;21067;-40
2022/06/24 07:45:22;;;;;;;9.75;6.87;;;;;;;21.50;77.63;99539.37;1626720;87;21562;-46
2022/06/24 07:47:49;;;;;;;7.83;6.95;;;;;;;21.51;77.79;99535.79;1627996;88;21430;-43
2022/06/24 07:50:15;;;;;;;10.28;6.78;;;;;;;21.49;76.61;99531.00;1626794;87;21556;-46
2022/06/24 07:52:42;;;;;;;8.45;6.95;;;;;;;21.50;77.70;99531.86;1629897;88;21127;-46
2022/06/24 07:57:54;;;;;;;8.30;6.03;;;;;;;22.02;77.32;99531.02;1628742;88;21086;-40
2022/06/24 08:00:21;;;;;;;7.50;6.45;;;;;;;22.38;76.26;99528.95;1629448;88;21027;-40
2022/06/24 08:02:47;;;;;;;10.58;6.72;;;;;;;22.51;74.16;99536.59;1630092;87;21090;-47
2022/06/24 08:05:15;;;;;;;9.63;7.42;;;;;;;22.41;74.16;99533.63;1631204;88;21544;-46
2022/06/24 08:07:43;;;;;;;9.65;7.85;;;;;;;22.37;75.12;99531.23;1630189;87;21079;-46
2022/06/24 08:10:12;;;;;;;10.10;7.42;;;;;;;22.46;73.04;99541.34;1632114;88;21574;-47
2022/06/24 08:12:39;;;;;;;8.05;7.12;;;;;;;22.49;72.54;99535.81;1631916;88;21123;-46
2022/06/24 08:15:09;;;;;;;8.80;7.87;;;;;;;22.42;72.87;99535.33;1629184;88;21008;-46
2022/06/24 08:17:38;;;;;;;9.13;8.25;;;;;;;22.38;72.59;99538.27;1631932;86;21138;-46
2022/06/24 08:20:06;;;;;;;10.63;8.43;;;;;;;22.40;72.90;99535.91;1627643;88;21582;-47
2022/06/24 08:22:33;;;;;;;9.18;7.87;;;;;;;22.48;74.04;99536.29;1629516;87;21071;-47
2022/06/24 08:25:01;;;;;;;10.38;8.18;;;;;;;22.68;72.44;99532.90;1635424;87;21066;-40
2022/06/24 08:27:27;;;;;;;8.83;7.92;;;;;;;22.75;71.61;99537.75;1633512;87;21662;-40
2022/06/24 08:29:54;;;;;;;10.28;8.45;;;;;;;22.70;71.48;99533.65;1632423;86;21031;-41
2022/06/24 08:32:21;;;;;;;14.65;9.13;;;;;;;22.50;71.28;99533.08;1632328;87;21098;-42
2022/06/24 08:34:47;;;;;;;10.18;8.38;;;;;;;22.25;71.91;99541.67;1629029;88;21142;-47
2022/06/24 08:37:14;;;;;;;11.03;9.03;;;;;;;22.03;72.89;99546.52;1629092;88;21178;-41
2022/06/24 08:39:41;;;;;;;8.30;7.22;;;;;;;21.81;74.30;99542.95;1630624;87;21086;-40
2022/06/24 08:42:13;;;;;;;9.40;8.40;;;;;;;21.67;75.25;99539.73;1629439;88;21155;-47
2022/06/24 08:44:40;;;;;;;14.73;8.50;;;;;;;21.60;76.35;99538.38;1630987;87;21078;-47
2022/06/24 08:47:14;;;;;;;13.05;9.05;;;;;;;21.57;77.27;99537.25;1632786;87;21590;-47
2022/06/24 08:49:41;;;;;;;9.75;8.63;;;;;;;21.47;76.82;99530.72;1613533;88;21566;-47
2022/06/24 08:52:09;;;;;;;12.68;9.90;;;;;;;21.36;77.11;99529.99;1641310;85;21596;-46
2022/06/24 08:54:36;;;;;;;10.00;9.00;;;;;;;21.23;76.97;99521.82;1651226;87;21049;-47
2022/06/24 08:57:05;;;;;;;12.33;8.95;;;;;;;21.19;78.62;99527.39;1629499;87;21067;-41
2022/06/24 08:59:32;;;;;;;10.82;8.90;;;;;;;21.17;77.97;99530.62;1632603;87;21071;-41
2022/06/24 09:01:58;;;;;;;9.63;8.20;;;;;;;21.16;78.22;99527.10;1612465;88;21138;-42
2022/06/24 09:04:25;;;;;;;10.20;9.05;;;;;;;21.21;78.72;99525.48;1629975;87;21091;-46
2022/06/24 09:06:52;;;;;;;12.25;8.65;;;;;;;21.31;78.44;99531.20;1632681;87;21570;-47
2022/06/24 09:09:24;;;;;;;14.87;8.98;;;;;;;21.38;77.39;99533.89;1631577;88;21465;-47
2022/06/24 09:12:00;;;;;;;11.05;8.70;;;;;;;21.42;77.67;99530.13;1631913;88;21079;-41
2022/06/24 09:14:45;;;;;;;10.03;7.35;;;;;;;21.46;78.13;99518.37;1629098;87;21083;-40
2022/06/24 09:17:12;;;;;;;9.55;7.95;;;;;;;21.60;77.67;99518.90;1629717;87;21615;-40
2022/06/24 09:19:39;;;;;;;8.38;6.53;;;;;;;21.78;76.39;99528.00;1628456;88;21062;-41
2022/06/24 09:22:06;;;;;;;9.98;7.10;;;;;;;21.85;75.47;99526.31;1628689;88;21142;-41
2022/06/24 09:24:46;;;;;;;7.55;6.85;;;;;;;21.88;75.69;99517.68;1630550;87;21086;-41
2022/06/24 09:27:13;;;;;;;8.08;6.28;;;;;;;22.00;75.89;99516.09;1633775;86;21083;-47
2022/06/24 09:29:49;;;;;;;13.55;6.60;;;;;;;22.17;75.32;99511.13;1629775;87;21055;-41
2022/06/24 09:32:16;;;;;;;6.15;5.55;;;;;;;22.33;74.95;99511.08;1630137;88;21087;-47
2022/06/24 09:35:06;;;;;;;6.10;5.60;;;;;;;22.45;74.03;99506.33;1626793;87;21729;-40
2022/06/24 09:37:41;;;;;;;12.73;5.30;;;;;;;22.45;73.84;99492.52;1629617;87;21055;-41
2022/06/24 09:40:30;;;;;;;7.70;5.15;;;;;;;22.52;73.36;99491.66;1631826;87;21027;-41
2022/06/24 09:43:05;;;;;;;7.95;6.05;;;;;;;22.63;73.71;99492.34;1630590;88;21082;-41
2022/06/24 09:45:51;;;;;;;10.40;5.05;;;;;;;22.79;71.77;99491.28;1627886;87;21091;-48
2022/06/24 09:48:37;;;;;;;11.55;5.45;;;;;;;22.98;71.52;99489.67;1629808;87;21154;-41
2022/06/24 09:51:06;;;;;;;7.70;6.50;;;;;;;23.16;71.61;99501.45;1630678;87;21590;-42
2022/06/24 09:53:36;;;;;;;10.10;6.28;;;;;;;23.22;70.12;99495.72;1632340;87;21111;-47
2022/06/24 09:56:08;;;;;;;10.70;7.80;;;;;;;23.21;69.49;99494.01;1629612;87;21039;-48
2022/06/24 09:58:39;;;;;;;9.05;7.12;;;;;;;23.09;70.30;99500.98;1629586;88;21107;-48
2022/06/24 10:01:05;;;;;;;16.15;9.05;;;;;;;22.93;70.80;99499.77;1628375;86;21629;-42
2022/06/24 10:03:35;;;;;;;8.68;7.00;;;;;;;22.83;71.80;99510.59;1622268;88;21548;-48
2022/06/24 10:06:04;;;;;;;11.28;6.12;;;;;;;22.68;71.96;99515.09;1625124;87;21012;-47
2022/06/24 10:08:34;;;;;;;11.25;5.05;;;;;;;22.48;71.42;99513.64;1626176;86;22033;-42
2022/06/24 10:11:06;;;;;;;5.78;5.17;;;;;;;22.28;71.36;99516.67;1606575;87;21071;-42
2022/06/24 10:13:33;;;;;;;10.80;6.25;;;;;;;22.17;72.42;99523.98;1615300;87;21704;-48
2022/06/24 10:16:08;;;;;;;11.00;4.85;;;;;;;22.15;71.79;99524.55;1632708;87;21083;-41
2022/06/24 10:18:41;;;;;;;8.03;5.97;;;;;;;22.10;72.83;99521.30;1633748;87;21063;-45
2022/06/24 10:21:09;;;;;;;4.15;3.20;;;;;;;21.96;73.15;99530.53;1635614;87;21076;-47
2022/06/24 10:23:50;;;;;;;8.90;3.90;;;;;;;21.70;74.39;99529.41;1632901;86;21102;-47
2022/06/24 10:26:31;;;;;;;9.58;4.08;;;;;;;21.40;77.61;99543.99;1631211;87;21562;-49
2022/06/24 10:29:05;;;;;;;7.90;3.67;;;;;;;20.89;85.73;99545.42;1632312;87;21559;-49
2022/06/24 10:34:28;;;;;;;6.30;3.45;;;;;;;19.59;96.71;99542.78;1632459;87;21106;-49
2022/06/24 10:37:02;;;;;;;7.75;3.80;;;;;;;19.17;100.00;99542.16;1631876;88;21115;-42
2022/06/24 10:39:33;;;;;;;5.17;3.72;;;;;;;18.90;100.00;99531.05;1614048;87;21626;-43
2022/06/24 10:42:06;;;;;;;6.62;4.55;;;;;;;18.81;100.00;99528.37;1632563;87;21602;-49
2022/06/24 10:44:37;;;;;;;8.03;4.65;;;;;;;18.83;100.00;99533.12;1629225;87;21063;-44
2022/06/24 10:47:15;;;;;;;8.48;4.90;;;;;;;18.88;100.00;99530.66;1631171;87;21637;-49
2022/06/24 10:49:55;;;;;;;9.48;5.70;;;;;;;18.95;100.00;99530.38;1632476;87;21074;-43
2022/06/24 10:52:38;;;;;;;7.00;4.40;;;;;;;19.05;100.00;99541.80;1631161;88;21563;-49
2022/06/24 10:55:29;;;;;;;8.20;4.92;;;;;;;19.13;100.00;99529.07;1630730;87;21043;-47
2022/06/24 10:58:05;;;;;;;7.47;5.15;;;;;;;19.19;100.00;99522.59;1632226;87;21070;-48
2022/06/24 11:00:48;;;;;;;6.55;4.87;;;;;;;19.21;100.00;99541.09;1633973;87;21063;-42
2022/06/24 11:03:13;;;;;;;6.58;4.80;;;;;;;19.16;100.00;99538.66;1632499;87;21090;-41
2022/06/24 11:05:44;;;;;;;7.90;4.85;;;;;;;19.07;100.00;99539.93;1641739;87;21078;-46
2022/06/24 11:08:17;;;;;;;9.50;5.28;;;;;;;18.99;100.00;99532.81;1629657;86;21134;-42
2022/06/24 11:10:47;;;;;;;6.35;4.75;;;;;;;18.90;100.00;99537.20;1633041;87;21082;-49
2022/06/24 11:13:16;;;;;;;8.93;5.25;;;;;;;18.87;100.00;99533.38;1632688;87;21246;-43
2022/06/24 11:15:52;;;;;;;10.45;5.00;;;;;;;18.89;100.00;99534.16;1632242;88;21610;-44
2022/06/24 11:18:26;;;;;;;6.50;5.72;;;;;;;18.94;100.00;99533.95;1632479;87;21578;-43
2022/06/24 11:21:05;;;;;;;10.53;5.37;;;;;;;19.00;100.00;99526.58;1630057;87;21039;-49
2022/06/24 11:23:35;;;;;;;6.28;5.10;;;;;;;19.13;100.00;99522.88;1617593;87;21130;-42
2022/06/24 11:26:15;;;;;;;8.15;4.72;;;;;;;19.22;100.00;99518.95;1628893;87;21075;-49
2022/06/24 11:28:45;;;;;;;7.42;4.42;;;;;;;19.25;100.00;99524.09;1630412;88;21138;-43
2022/06/24 11:31:26;;;;;;;8.45;4.83;;;;;;;19.29;100.00;99520.36;1632684;86;21059;-43
2022/06/24 11:34:05;;;;;;;5.85;4.87;;;;;;;19.31;100.00;99526.48;1627355;88;21654;-49
2022/06/24 11:36:33;;;;;;;6.37;4.80;;;;;;;19.31;100.00;99509.23;1631165;87;21035;-44
2022/06/24 11:39:02;;;;;;;8.30;5.37;;;;;;;19.28;100.00;99515.53;1630539;87;21047;-47
2022/06/24 11:41:32;;;;;;;9.38;5.17;;;;;;;19.25;100.00;99523.65;1632852;88;21095;-47
2022/06/24 11:43:59;;;;;;;9.53;5.67;;;;;;;19.25;100.00;99536.91;1632957;88;20991;-47
2022/06/24 11:46:26;;;;;;;9.95;5.80;;;;;;;19.23;100.00;99535.24;1632620;88;21051;-47
2022/06/24 11:49:15;;;;;;;10.30;5.70;;;;;;;19.20;100.00;99542.03;1632699;87;21142;-48
2022/06/24 11:51:40;;;;;;;5.42;4.83;;;;;;;19.17;100.00;99529.77;1630616;87;21047;-48
2022/06/24 11:54:08;;;;;;;7.97;5.25;;;;;;;19.14;100.00;99524.62;1631475;87;21023;-48
2022/06/24 11:56:37;;;;;;;10.60;5.37;;;;;;;19.09;100.00;99520.86;1632783;88;21063;-48
2022/06/24 11:59:05;;;;;;;7.45;5.17;;;;;;;19.06;100.00;99526.28;1630997;87;21095;-48
2022/06/24 12:01:32;;;;;;;12.95;5.17;;;;;;;19.03;100.00;99525.59;1629962;87;21121;-43
2022/06/24 12:04:05;;;;;;;9.48;4.83;;;;;;;19.00;100.00;99526.58;1641195;86;21485;-42
2022/06/24 12:06:31;;;;;;;13.05;5.15;;;;;;;19.00;100.00;99528.37;1640093;87;21102;-49
2022/06/24 12:08:58;;;;;;;5.90;4.53;;;;;;;19.02;100.00;99530.03;1629832;87;21015;-49
2022/06/24 12:11:26;;;;;;;11.63;5.58;;;;;;;19.07;100.00;99528.47;1631713;87;21082;-43
2022/06/24 12:14:04;;;;;;;6.58;5.12;;;;;;;19.11;100.00;99527.41;1630057;88;21083;-43
2022/06/24 12:17:03;;;;;;;5.80;4.40;;;;;;;19.16;100.00;99532.50;1632569;87;21562;-49
2022/06/24 12:19:32;;;;;;;8.33;4.90;;;;;;;19.19;100.00;99531.86;1628930;88;21018;-49
